createdAt,value
2024-03-09T00:00:45.273Z,1.30
2024-03-09T00:03:13.480Z,1.30
2024-03-09T00:05:41.213Z,1.30
2024-03-09T00:08:10.183Z,1.30
2024-03-09T00:10:37.605Z,1.30
2024-03-09T00:13:05.119Z,1.30
2024-03-09T00:15:32.804Z,1.30
2024-03-09T00:18:00.498Z,1.40
2024-03-09T00:20:38.064Z,1.50
2024-03-09T00:23:09.587Z,1.40
2024-03-09T00:25:39.324Z,1.40
2024-03-09T00:28:07.117Z,1.40
2024-03-09T00:30:36.394Z,1.40
2024-03-09T00:33:07.904Z,1.40
2024-03-09T00:35:36.299Z,1.40
2024-03-09T00:38:06.080Z,1.40
2024-03-09T00:40:33.628Z,1.50
2024-03-09T00:43:05.707Z,1.40
2024-03-09T00:45:33.164Z,1.40
2024-03-09T00:48:00.225Z,1.50
2024-03-09T00:50:28.547Z,1.50
2024-03-09T00:52:56.232Z,1.50
2024-03-09T00:55:24.312Z,1.50
2024-03-09T00:57:52.717Z,1.50
2024-03-09T01:00:25.689Z,1.60
2024-03-09T01:02:53.588Z,1.60
2024-03-09T01:05:24.599Z,1.70
2024-03-09T01:07:53.046Z,1.70
2024-03-09T01:10:20.763Z,1.70
2024-03-09T01:12:49.655Z,1.90
2024-03-09T01:15:17.229Z,1.80
2024-03-09T01:17:44.356Z,1.80
2024-03-09T01:20:11.980Z,1.90
2024-03-09T01:22:43.025Z,1.90
2024-03-09T01:25:10.066Z,1.90
2024-03-09T01:27:38.897Z,1.80
2024-03-09T01:30:10.699Z,1.80
2024-03-09T01:32:41.556Z,1.80
2024-03-09T01:35:10.818Z,1.80
2024-03-09T01:37:38.203Z,1.80
2024-03-09T01:40:06.873Z,1.80
2024-03-09T01:42:34.257Z,1.80
2024-03-09T01:45:05.589Z,2.00
2024-03-09T01:47:33.730Z,2.00
2024-03-09T01:50:01.190Z,1.90
2024-03-09T01:52:33.401Z,1.90
2024-03-09T01:55:04.394Z,1.90
2024-03-09T01:57:31.419Z,1.90
2024-03-09T01:59:58.405Z,1.80
2024-03-09T02:02:25.911Z,1.70
2024-03-09T02:04:53.296Z,1.70
2024-03-09T02:07:23.117Z,1.70
2024-03-09T02:09:50.108Z,1.60
2024-03-09T02:12:21.189Z,1.60
2024-03-09T02:14:49.667Z,1.60
2024-03-09T02:17:16.960Z,1.60
2024-03-09T02:19:44.201Z,1.60
2024-03-09T02:22:14.334Z,1.50
2024-03-09T02:24:42.870Z,1.50
2024-03-09T02:27:11.254Z,1.50
2024-03-09T02:29:41.249Z,1.50
2024-03-09T02:32:08.913Z,1.30
2024-03-09T02:34:36.602Z,1.30
2024-03-09T02:37:04.914Z,1.20
2024-03-09T02:39:32.448Z,1.20
2024-03-09T02:42:00.337Z,1.20
2024-03-09T02:44:28.460Z,1.10
2024-03-09T02:46:56.024Z,1.00
2024-03-09T02:49:28.221Z,0.90
2024-03-09T02:51:55.432Z,0.90
2024-03-09T02:54:24.465Z,0.90
2024-03-09T02:56:51.563Z,0.80
2024-03-09T02:59:18.505Z,0.80
2024-03-09T03:01:48.286Z,0.70
2024-03-09T03:04:16.575Z,0.60
2024-03-09T03:06:44.981Z,0.60
2024-03-09T03:09:13.639Z,0.60
2024-03-09T03:11:44.573Z,0.60
2024-03-09T03:14:12.482Z,0.50
2024-03-09T03:16:44.158Z,0.50
2024-03-09T03:19:11.205Z,0.50
2024-03-09T03:21:42.013Z,0.50
2024-03-09T03:24:14.092Z,0.50
2024-03-09T03:26:41.188Z,0.50
2024-03-09T03:29:09.120Z,0.50
2024-03-09T03:31:39.464Z,0.50
2024-03-09T03:34:07.135Z,0.40
2024-03-09T03:36:39.192Z,0.40
2024-03-09T03:39:12.575Z,0.40
2024-03-09T03:41:39.895Z,0.40
2024-03-09T03:44:06.874Z,0.30
2024-03-09T03:46:33.973Z,0.30
2024-03-09T03:49:02.867Z,0.30
2024-03-09T03:51:29.783Z,0.30
2024-03-09T03:53:58.303Z,0.20
2024-03-09T03:56:25.898Z,0.20
2024-03-09T03:58:53.190Z,0.20
2024-03-09T04:01:20.371Z,0.30
2024-03-09T04:03:48.707Z,0.30
2024-03-09T04:06:15.663Z,0.40
2024-03-09T04:08:42.834Z,0.40
2024-03-09T04:11:09.942Z,0.40
2024-03-09T04:13:36.865Z,0.30
2024-03-09T04:16:05.152Z,0.30
2024-03-09T04:18:33.190Z,0.20
2024-03-09T04:21:03.166Z,0.20
2024-03-09T04:23:30.446Z,0.20
2024-03-09T04:25:57.668Z,0.30
2024-03-09T04:28:29.276Z,0.30
2024-03-09T04:30:58.255Z,0.30
2024-03-09T04:33:25.917Z,0.30
2024-03-09T04:35:54.614Z,0.30
2024-03-09T04:38:22.405Z,0.30
2024-03-09T04:40:52.785Z,0.30
2024-03-09T04:43:20.293Z,0.20
2024-03-09T04:45:47.771Z,0.20
2024-03-09T04:48:15.952Z,0.20
2024-03-09T04:50:48.833Z,0.20
2024-03-09T04:53:18.153Z,0.20
2024-03-09T04:55:49.975Z,0.20
2024-03-09T04:58:23.080Z,0.20
2024-03-09T05:00:50.063Z,0.20
2024-03-09T05:03:19.174Z,0.30
2024-03-09T05:05:46.225Z,0.30
2024-03-09T05:08:13.864Z,0.30
2024-03-09T05:10:41.386Z,0.40
2024-03-09T05:13:09.572Z,0.30
2024-03-09T05:15:37.672Z,0.30
2024-03-09T05:18:12.643Z,0.40
2024-03-09T05:20:40.858Z,0.40
2024-03-09T05:23:14.932Z,0.40
2024-03-09T05:25:44.171Z,0.40
2024-03-09T05:28:14.899Z,0.30
2024-03-09T05:30:43.715Z,0.30
2024-03-09T05:33:11.206Z,0.30
2024-03-09T05:35:39.357Z,0.30
2024-03-09T05:38:07.208Z,0.30
2024-03-09T05:40:36.172Z,0.30
2024-03-09T05:43:08.771Z,0.40
2024-03-09T05:45:37.468Z,0.40
2024-03-09T05:48:05.341Z,0.40
2024-03-09T05:50:33.522Z,0.40
2024-03-09T05:53:06.632Z,0.50
2024-03-09T05:55:33.931Z,0.40
2024-03-09T05:58:01.248Z,0.50
2024-03-09T06:00:31.345Z,0.50
2024-03-09T06:03:03.818Z,0.50
2024-03-09T06:05:35.107Z,0.60
2024-03-09T06:08:03.839Z,0.60
2024-03-09T06:10:31.592Z,0.70
2024-03-09T06:12:58.784Z,0.70
2024-03-09T06:15:27.166Z,0.80
2024-03-09T06:18:07.103Z,0.80
2024-03-09T06:20:36.070Z,0.90
2024-03-09T06:23:03.548Z,0.90
2024-03-09T06:25:31.517Z,1.00
2024-03-09T06:28:03.893Z,1.10
2024-03-09T06:30:34.359Z,1.20
2024-03-09T06:33:03.323Z,1.20
2024-03-09T06:35:32.400Z,1.20
2024-03-09T06:38:02.118Z,1.30
2024-03-09T06:40:34.432Z,1.30
2024-03-09T06:43:02.967Z,1.30
2024-03-09T06:45:31.059Z,1.50
2024-03-09T06:48:00.898Z,1.60
2024-03-09T06:50:45.737Z,1.60
2024-03-09T06:53:13.620Z,1.70
2024-03-09T06:55:41.003Z,1.90
2024-03-09T06:58:08.194Z,2.00
2024-03-09T07:00:37.175Z,2.20
2024-03-09T07:03:06.945Z,2.50
2024-03-09T07:05:40.873Z,2.70
2024-03-09T07:08:11.551Z,2.80
2024-03-09T07:10:39.067Z,2.90
2024-03-09T07:13:06.694Z,3.10
2024-03-09T07:15:34.157Z,3.20
2024-03-09T07:18:02.239Z,3.30
2024-03-09T07:20:30.413Z,3.20
2024-03-09T07:22:57.971Z,3.30
2024-03-09T07:25:27.456Z,3.40
2024-03-09T07:27:57.142Z,3.50
2024-03-09T07:30:35.471Z,3.60
2024-03-09T07:33:03.563Z,3.70
2024-03-09T07:35:31.769Z,3.90
2024-03-09T07:38:00.984Z,4.00
2024-03-09T07:40:42.430Z,4.10
2024-03-09T07:43:15.349Z,4.20
2024-03-09T07:45:42.543Z,4.30
2024-03-09T07:48:09.851Z,4.40
2024-03-09T07:50:37.014Z,4.60
2024-03-09T07:53:07.642Z,4.70
2024-03-09T07:55:35.730Z,4.90
2024-03-09T08:00:36.911Z,5.20
2024-03-09T08:03:04.381Z,5.50
2024-03-09T08:05:31.654Z,5.60
2024-03-09T08:08:05.129Z,6.00
2024-03-09T08:10:35.344Z,6.30
2024-03-09T08:13:03.164Z,6.60
2024-03-09T08:15:30.791Z,6.90
2024-03-09T08:17:58.354Z,7.20
2024-03-09T08:20:25.770Z,7.20
2024-03-09T08:22:54.355Z,7.50
2024-03-09T08:25:21.997Z,8.00
2024-03-09T08:27:55.826Z,8.30
2024-03-09T08:30:23.263Z,8.50
2024-03-09T08:32:55.175Z,8.60
2024-03-09T08:35:23.526Z,9.00
2024-03-09T08:37:52.444Z,9.20
2024-03-09T08:40:22.095Z,9.30
2024-03-09T08:42:53.139Z,9.70
2024-03-09T08:45:30.923Z,10.00
2024-03-09T08:47:58.293Z,10.10
2024-03-09T08:50:36.410Z,10.20
2024-03-09T08:53:03.611Z,10.30
2024-03-09T08:55:31.003Z,10.50
2024-03-09T08:57:57.984Z,10.80
2024-03-09T09:00:27.988Z,11.00
2024-03-09T09:02:58.385Z,10.50
2024-03-09T09:05:28.923Z,10.30
2024-03-09T09:07:57.028Z,10.50
2024-03-09T09:10:26.818Z,11.00
2024-03-09T09:12:55.524Z,11.50
2024-03-09T09:15:24.481Z,11.80
2024-03-09T09:17:51.615Z,12.10
2024-03-09T09:20:21.538Z,12.30
2024-03-09T09:22:49.439Z,12.40
2024-03-09T09:25:29.967Z,12.40
2024-03-09T09:28:03.861Z,12.60
2024-03-09T09:30:31.112Z,12.60
2024-03-09T09:32:58.709Z,12.90
2024-03-09T09:35:26.198Z,12.60
2024-03-09T09:37:54.601Z,12.30
2024-03-09T09:40:25.083Z,12.20
2024-03-09T09:43:01.463Z,12.60
2024-03-09T09:45:30.479Z,13.10
2024-03-09T09:48:01.036Z,13.30
2024-03-09T09:50:35.654Z,13.50
2024-03-09T09:53:09.374Z,13.50
2024-03-09T09:55:37.927Z,13.70
2024-03-09T09:58:08.144Z,13.70
2024-03-09T10:00:35.016Z,14.00
2024-03-09T10:03:02.784Z,14.00
2024-03-09T10:05:30.344Z,14.10
2024-03-09T10:08:07.352Z,13.10
2024-03-09T10:10:38.091Z,13.40
2024-03-09T10:13:10.311Z,13.80
2024-03-09T10:15:39.565Z,13.90
2024-03-09T10:18:07.590Z,14.20
2024-03-09T10:20:36.770Z,14.60
2024-03-09T10:23:06.205Z,14.20
2024-03-09T10:25:37.343Z,14.60
2024-03-09T10:28:06.744Z,15.20
2024-03-09T10:30:34.572Z,15.20
2024-03-09T10:33:01.500Z,14.20
2024-03-09T10:35:28.769Z,14.70
2024-03-09T10:37:57.073Z,14.40
2024-03-09T10:40:33.659Z,13.30
2024-03-09T10:43:05.242Z,13.60
2024-03-09T10:45:35.133Z,14.40
2024-03-09T10:48:10.742Z,15.10
2024-03-09T10:50:42.359Z,14.60
2024-03-09T10:53:10.021Z,14.20
2024-03-09T10:56:07.700Z,13.70
2024-03-09T10:58:37.747Z,13.50
2024-03-09T11:01:12.667Z,12.70
2024-03-09T11:03:40.555Z,13.00
2024-03-09T11:06:12.478Z,13.60
2024-03-09T11:08:41.316Z,14.30
2024-03-09T11:11:11.850Z,14.50
2024-03-09T11:13:39.431Z,14.80
2024-03-09T11:16:17.022Z,15.20
2024-03-09T11:18:45.176Z,14.80
2024-03-09T11:21:34.262Z,14.50
2024-03-09T11:24:13.415Z,13.40
2024-03-09T11:26:52.026Z,13.20
2024-03-09T11:29:21.113Z,13.40
2024-03-09T11:31:50.790Z,13.50
2024-03-09T11:34:24.484Z,13.30
2024-03-09T11:36:58.695Z,13.50
2024-03-09T11:39:32.843Z,13.70
2024-03-09T11:42:02.240Z,13.70
2024-03-09T11:44:32.080Z,13.80
2024-03-09T11:46:59.565Z,14.00
2024-03-09T11:49:34.607Z,13.80
2024-03-09T11:52:08.326Z,12.90
2024-03-09T11:54:39.485Z,12.60
2024-03-09T11:57:11.831Z,12.50
2024-03-09T11:59:38.870Z,12.00
2024-03-09T12:02:09.852Z,12.20
2024-03-09T12:04:37.608Z,12.40
2024-03-09T12:07:09.970Z,12.40
2024-03-09T12:09:38.891Z,12.30
2024-03-09T12:12:16.394Z,12.20
2024-03-09T12:14:45.028Z,12.50
2024-03-09T12:17:13.882Z,12.80
2024-03-09T12:19:42.453Z,13.10
2024-03-09T12:22:11.004Z,12.70
2024-03-09T12:24:37.945Z,12.50
2024-03-09T12:27:09.967Z,12.30
2024-03-09T12:29:40.279Z,12.10
2024-03-09T12:32:08.266Z,11.90
2024-03-09T12:34:38.111Z,11.60
2024-03-09T12:37:05.748Z,11.60
2024-03-09T12:39:32.578Z,11.70
2024-03-09T12:42:04.112Z,11.70
2024-03-09T12:44:40.407Z,11.60
2024-03-09T12:47:08.149Z,11.50
2024-03-09T12:49:35.287Z,11.50
2024-03-09T12:52:03.710Z,11.60
2024-03-09T12:54:32.390Z,11.70
2024-03-09T12:57:04.819Z,11.70
2024-03-09T12:59:31.970Z,11.70
2024-03-09T13:02:02.260Z,11.90
2024-03-09T13:04:39.080Z,11.90
2024-03-09T13:07:06.666Z,12.00
2024-03-09T13:09:34.970Z,12.20
2024-03-09T13:12:05.344Z,12.30
2024-03-09T13:14:35.668Z,12.50
2024-03-09T13:17:09.886Z,12.70
2024-03-09T13:19:38.229Z,12.70
2024-03-09T13:22:08.001Z,12.60
2024-03-09T13:24:37.973Z,12.50
2024-03-09T13:27:09.546Z,12.50
2024-03-09T13:29:37.928Z,12.60
2024-03-09T13:32:13.465Z,12.40
2024-03-09T13:34:41.336Z,12.50
2024-03-09T13:37:12.674Z,12.50
2024-03-09T13:39:39.780Z,12.50
2024-03-09T13:42:10.963Z,12.40
2024-03-09T13:44:38.626Z,12.30
2024-03-09T13:47:07.041Z,12.40
2024-03-09T13:49:38.429Z,12.20
2024-03-09T13:52:06.087Z,12.00
2024-03-09T13:54:35.630Z,11.90
2024-03-09T13:57:02.586Z,11.80
2024-03-09T13:59:30.028Z,11.60
2024-03-09T14:01:57.550Z,11.50
2024-03-09T14:04:25.941Z,11.50
2024-03-09T14:07:06.583Z,11.60
2024-03-09T14:09:41.021Z,11.40
2024-03-09T14:12:11.647Z,11.30
2024-03-09T14:14:39.974Z,11.20
2024-03-09T14:17:10.885Z,11.20
2024-03-09T14:19:41.560Z,11.20
2024-03-09T14:22:12.691Z,11.20
2024-03-09T14:24:39.945Z,11.10
2024-03-09T14:27:08.059Z,11.20
2024-03-09T14:29:38.291Z,11.50
2024-03-09T14:32:07.899Z,11.70
2024-03-09T14:34:36.612Z,11.90
2024-03-09T14:37:04.127Z,11.90
2024-03-09T14:39:32.085Z,12.00
2024-03-09T14:41:59.327Z,11.90
2024-03-09T14:44:26.296Z,11.70
2024-03-09T14:46:53.462Z,11.60
2024-03-09T14:49:21.176Z,11.60
2024-03-09T14:51:48.354Z,11.50
2024-03-09T14:54:18.001Z,11.40
2024-03-09T14:56:47.510Z,11.40
2024-03-09T14:59:16.656Z,11.40
2024-03-09T15:01:47.759Z,11.30
2024-03-09T15:04:16.340Z,11.20
2024-03-09T15:06:43.406Z,11.10
2024-03-09T15:09:24.629Z,11.10
2024-03-09T15:11:55.513Z,11.10
2024-03-09T15:14:23.178Z,11.00
2024-03-09T15:16:56.718Z,10.90
2024-03-09T15:19:27.658Z,10.90
2024-03-09T15:21:57.869Z,11.00
2024-03-09T15:24:24.755Z,11.00
2024-03-09T15:26:51.882Z,10.90
2024-03-09T15:29:25.612Z,10.90
2024-03-09T15:32:02.175Z,10.80
2024-03-09T15:34:29.946Z,10.80
2024-03-09T15:36:59.985Z,10.70
2024-03-09T15:39:27.983Z,10.70
2024-03-09T15:41:59.687Z,10.70
2024-03-09T15:44:30.031Z,10.70
2024-03-09T15:47:03.035Z,10.60
2024-03-09T15:49:32.247Z,10.60
2024-03-09T15:52:00.800Z,10.60
2024-03-09T15:54:30.924Z,10.60
2024-03-09T15:56:58.121Z,10.60
2024-03-09T15:59:25.591Z,10.50
2024-03-09T16:01:59.609Z,10.50
2024-03-09T16:04:28.813Z,10.50
2024-03-09T16:06:58.523Z,10.60
2024-03-09T16:09:28.091Z,10.60
2024-03-09T16:11:56.077Z,10.50
2024-03-09T16:14:23.759Z,10.50
2024-03-09T16:16:50.944Z,10.50
2024-03-09T16:19:18.724Z,10.40
2024-03-09T16:21:48.828Z,10.40
2024-03-09T16:24:20.656Z,10.40
2024-03-09T16:26:47.482Z,10.40
2024-03-09T16:29:14.707Z,10.30
2024-03-09T16:31:41.874Z,10.30
2024-03-09T16:34:09.577Z,10.30
2024-03-09T16:36:36.800Z,10.30
2024-03-09T16:39:09.484Z,10.20
2024-03-09T16:41:39.823Z,10.20
2024-03-09T16:44:06.966Z,10.10
2024-03-09T16:46:33.947Z,10.10
2024-03-09T16:49:03.596Z,10.00
2024-03-09T16:51:30.978Z,10.00
2024-03-09T16:53:58.112Z,10.00
2024-03-09T16:56:29.804Z,10.00
2024-03-09T16:58:57.297Z,10.00
2024-03-09T17:01:25.587Z,10.00
2024-03-09T17:03:52.638Z,10.00
2024-03-09T17:06:20.551Z,10.00
2024-03-09T17:08:48.606Z,10.00
2024-03-09T17:11:16.096Z,10.00
2024-03-09T17:13:48.748Z,10.00
2024-03-09T17:16:19.006Z,10.00
2024-03-09T17:18:50.204Z,10.00
2024-03-09T17:21:18.468Z,10.00
2024-03-09T17:23:46.424Z,9.90
2024-03-09T17:26:14.621Z,10.00
2024-03-09T17:28:41.676Z,10.00
2024-03-09T17:31:09.621Z,10.00
2024-03-09T17:33:38.650Z,10.00
2024-03-09T17:36:07.944Z,10.00
2024-03-09T17:38:34.994Z,9.90
2024-03-09T17:41:03.296Z,9.90
2024-03-09T17:43:30.571Z,9.90
2024-03-09T17:45:57.750Z,9.90
2024-03-09T17:48:24.927Z,9.90
2024-03-09T17:50:57.384Z,9.90
2024-03-09T17:53:24.526Z,9.80
2024-03-09T17:55:54.774Z,9.80
2024-03-09T17:58:26.088Z,9.80
2024-03-09T18:00:55.729Z,9.70
2024-03-09T18:03:22.856Z,9.70
2024-03-09T18:05:57.189Z,9.70
2024-03-09T18:08:25.282Z,9.70
2024-03-09T18:10:52.289Z,9.80
2024-03-09T18:13:22.096Z,9.80
2024-03-09T18:15:49.124Z,9.80
2024-03-09T18:21:09.830Z,9.80
2024-03-09T18:23:43.940Z,9.90
2024-03-09T18:26:13.306Z,9.90
2024-03-09T18:28:43.506Z,9.90
2024-03-09T18:31:11.655Z,9.90
2024-03-09T18:33:43.689Z,9.80
2024-03-09T18:36:14.173Z,9.70
2024-03-09T18:38:41.536Z,9.70
2024-03-09T18:41:11.446Z,9.70
2024-03-09T18:43:39.005Z,9.80
2024-03-09T18:46:09.006Z,9.70
2024-03-09T18:48:36.169Z,9.70
2024-03-09T18:51:03.773Z,9.60
2024-03-09T18:53:33.994Z,9.60
2024-03-09T18:56:01.108Z,9.50
2024-03-09T18:58:28.029Z,9.50
2024-03-09T19:00:55.896Z,9.50
2024-03-09T19:03:22.989Z,9.50
2024-03-09T19:05:50.491Z,9.50
2024-03-09T19:08:18.807Z,9.50
2024-03-09T19:10:46.802Z,9.40
2024-03-09T19:13:15.653Z,9.40
2024-03-09T19:15:43.355Z,9.40
2024-03-09T19:18:10.914Z,9.40
2024-03-09T19:20:39.930Z,9.40
2024-03-09T19:23:07.129Z,9.50
2024-03-09T19:25:36.710Z,9.50
2024-03-09T19:28:03.923Z,9.50
2024-03-09T19:30:33.676Z,9.50
2024-03-09T19:33:00.922Z,9.40
2024-03-09T19:35:29.616Z,9.40
2024-03-09T19:37:59.750Z,9.40
2024-03-09T19:40:28.170Z,9.40
2024-03-09T19:42:56.410Z,9.40
2024-03-09T19:45:24.683Z,9.50
2024-03-09T19:47:53.221Z,9.40
2024-03-09T19:50:24.385Z,9.40
2024-03-09T19:52:52.992Z,9.50
2024-03-09T19:55:23.235Z,9.40
2024-03-09T19:57:50.383Z,9.40
2024-03-09T20:00:20.936Z,9.50
2024-03-09T20:02:58.241Z,9.40
2024-03-09T20:05:34.572Z,9.40
2024-03-09T20:08:02.744Z,9.40
2024-03-09T20:10:33.839Z,9.40
2024-03-09T20:13:01.627Z,9.40
2024-03-09T20:15:29.656Z,9.30
2024-03-09T20:18:04.023Z,9.30
2024-03-09T20:20:33.504Z,9.40
2024-03-09T20:23:01.917Z,9.40
2024-03-09T20:25:29.000Z,9.40
2024-03-09T20:27:56.736Z,9.40
2024-03-09T20:30:24.115Z,9.40
2024-03-09T20:32:52.645Z,9.40
2024-03-09T20:35:20.953Z,9.50
2024-03-09T20:37:52.017Z,9.40
2024-03-09T20:40:20.642Z,9.30
2024-03-09T20:42:51.246Z,9.30
2024-03-09T20:45:19.665Z,9.40
2024-03-09T20:47:47.497Z,9.30
2024-03-09T20:50:16.483Z,9.40
2024-03-09T20:52:48.912Z,9.30
2024-03-09T20:55:16.354Z,9.30
2024-03-09T20:57:43.377Z,9.30
2024-03-09T21:00:24.143Z,9.30
2024-03-09T21:02:53.423Z,9.40
2024-03-09T21:05:21.115Z,9.40
2024-03-09T21:07:48.204Z,9.40
2024-03-09T21:10:16.105Z,9.30
2024-03-09T21:12:47.953Z,9.30
2024-03-09T21:15:15.270Z,9.30
2024-03-09T21:17:42.756Z,9.20
2024-03-09T21:20:15.622Z,9.20
2024-03-09T21:22:43.464Z,9.10
2024-03-09T21:25:12.216Z,9.10
2024-03-09T21:27:43.907Z,9.00
2024-03-09T21:30:15.642Z,9.00
2024-03-09T21:32:46.225Z,9.00
2024-03-09T21:35:14.250Z,9.00
2024-03-09T21:37:45.054Z,9.00
2024-03-09T21:40:14.686Z,9.00
2024-03-09T21:42:46.659Z,9.00
2024-03-09T21:45:15.356Z,9.00
2024-03-09T21:47:44.717Z,9.00
2024-03-09T21:50:18.259Z,9.00
2024-03-09T21:52:50.038Z,8.90
2024-03-09T21:55:18.025Z,8.90
2024-03-09T21:57:45.450Z,8.90
2024-03-09T22:00:31.280Z,8.90
2024-03-09T22:03:02.422Z,8.90
2024-03-09T22:05:30.108Z,8.90
2024-03-09T22:07:58.766Z,8.90
2024-03-09T22:10:26.342Z,8.80
2024-03-09T22:12:56.679Z,8.90
2024-03-09T22:15:27.425Z,8.90
2024-03-09T22:17:56.358Z,8.90
2024-03-09T22:20:23.910Z,8.80
2024-03-09T22:22:51.259Z,8.90
2024-03-09T22:25:27.680Z,8.90
2024-03-09T22:27:55.523Z,8.90
2024-03-09T22:30:22.949Z,8.90
2024-03-09T22:32:50.168Z,8.90
2024-03-09T22:35:17.770Z,8.90
2024-03-09T22:37:46.333Z,8.90
2024-03-09T22:40:21.668Z,8.90
2024-03-09T22:42:49.604Z,8.90
2024-03-09T22:45:17.186Z,8.90
2024-03-09T22:47:46.540Z,8.90
2024-03-09T22:50:16.672Z,8.90
2024-03-09T22:52:44.343Z,8.80
2024-03-09T22:55:12.351Z,8.80
2024-03-09T22:57:41.657Z,8.80
2024-03-09T23:00:33.884Z,8.70
2024-03-09T23:03:02.895Z,8.60
2024-03-09T23:05:31.159Z,8.50
2024-03-09T23:07:58.656Z,8.50
2024-03-09T23:10:27.051Z,8.40
2024-03-09T23:12:54.381Z,8.40
2024-03-09T23:15:23.490Z,8.40
2024-03-09T23:17:53.860Z,8.40
2024-03-09T23:20:24.616Z,8.40
2024-03-09T23:22:52.821Z,8.40
2024-03-09T23:25:22.820Z,8.40
2024-03-09T23:27:49.978Z,8.40
2024-03-09T23:30:18.623Z,8.40
2024-03-09T23:32:54.534Z,8.40
2024-03-09T23:35:24.984Z,8.40
2024-03-09T23:37:52.427Z,8.40
2024-03-09T23:40:22.633Z,8.50
2024-03-09T23:42:49.780Z,8.40
2024-03-09T23:45:20.900Z,8.40
2024-03-09T23:47:49.282Z,8.40
2024-03-09T23:50:21.825Z,8.40
2024-03-09T23:52:52.615Z,8.40
2024-03-09T23:55:22.076Z,8.40
2024-03-09T23:57:49.626Z,8.40
